createdAt,value
2022-10-04T00:09:07.894Z,8.16
2022-10-04T00:29:07.882Z,8.28
2022-10-04T00:49:07.880Z,8.25
2022-10-04T01:09:07.851Z,7.85
2022-10-04T01:29:07.833Z,8.00
2022-10-04T01:49:07.822Z,7.61
2022-10-04T02:09:07.812Z,7.70
2022-10-04T02:29:07.790Z,7.45
2022-10-04T02:49:07.775Z,7.38
2022-10-04T03:09:07.755Z,7.21
2022-10-04T03:29:07.744Z,7.00
2022-10-04T03:49:07.729Z,7.08
2022-10-04T04:09:07.715Z,7.24
2022-10-04T04:29:07.703Z,6.93
2022-10-04T04:49:07.679Z,6.97
2022-10-04T05:09:07.670Z,6.77
2022-10-04T05:29:07.660Z,6.87
2022-10-04T05:49:07.627Z,7.12
2022-10-04T06:09:07.627Z,7.30
2022-10-04T06:29:07.620Z,7.42
2022-10-04T06:49:07.606Z,7.91
2022-10-04T07:09:07.588Z,8.71
2022-10-04T07:29:07.809Z,9.13
2022-10-04T07:49:07.526Z,9.63
2022-10-04T08:09:07.535Z,9.84
2022-10-04T08:29:07.535Z,10.46
2022-10-04T08:49:07.493Z,11.00
2022-10-04T09:09:07.478Z,11.40
2022-10-04T09:29:07.505Z,11.77
2022-10-04T09:49:07.425Z,12.29
2022-10-04T10:09:07.382Z,12.69
2022-10-04T10:29:07.356Z,12.94
2022-10-04T10:49:07.343Z,13.31
2022-10-04T11:09:07.334Z,13.74
2022-10-04T11:29:07.301Z,14.13
2022-10-04T11:49:07.288Z,14.36
2022-10-04T12:09:07.279Z,14.67
2022-10-04T12:29:07.225Z,14.63
2022-10-04T12:49:07.253Z,14.69
2022-10-04T13:09:07.238Z,14.94
2022-10-04T13:29:07.207Z,15.05
2022-10-04T13:49:07.129Z,15.30
2022-10-04T14:09:07.104Z,15.26
2022-10-04T14:29:07.064Z,14.93
2022-10-04T14:49:07.081Z,14.95
2022-10-04T15:09:07.020Z,14.75
2022-10-04T15:29:06.991Z,14.69
2022-10-04T15:49:07.009Z,14.49
2022-10-04T16:09:06.944Z,14.33
2022-10-04T16:29:06.931Z,14.12
2022-10-04T16:49:06.953Z,13.98
2022-10-04T17:09:06.864Z,13.84
2022-10-04T17:29:06.863Z,13.56
2022-10-04T17:49:06.829Z,13.03
2022-10-04T18:09:06.808Z,12.84
2022-10-04T18:29:06.820Z,12.55
2022-10-04T18:49:06.776Z,12.39
2022-10-04T19:09:06.731Z,11.93
2022-10-04T19:29:06.717Z,11.64
2022-10-04T19:49:06.742Z,11.76
2022-10-04T20:09:06.659Z,11.47
2022-10-04T20:29:06.637Z,11.07
2022-10-04T20:49:06.615Z,10.80
2022-10-04T21:09:06.606Z,10.49
2022-10-04T21:29:06.588Z,10.43
2022-10-04T21:49:06.551Z,10.43
2022-10-04T22:09:06.537Z,10.28
2022-10-04T22:29:06.505Z,10.30
2022-10-04T22:49:06.492Z,9.97
2022-10-04T23:09:06.473Z,9.70
2022-10-04T23:29:06.445Z,9.74
2022-10-04T23:49:06.443Z,9.64
